sensor_id;sensor_type;location;lat;lon;timestamp;P1;durP1;ratioP1;P2;durP2;ratioP2
4698;SDS011;33708;49.466;11.176;2023-05-07T00:00:36;13.10;;;3.57;;
4698;SDS011;33708;49.466;11.176;2023-05-07T00:03:02;11.47;;;3.53;;
4698;SDS011;33708;49.466;11.176;2023-05-07T00:05:28;16.23;;;4.10;;
4698;SDS011;33708;49.466;11.176;2023-05-07T00:07:53;11.50;;;3.63;;
4698;SDS011;33708;49.466;11.176;2023-05-07T00:10:19;13.00;;;3.27;;
4698;SDS011;33708;49.466;11.176;2023-05-07T00:12:45;10.33;;;3.20;;
4698;SDS011;33708;49.466;11.176;2023-05-07T00:15:10;13.20;;;3.47;;
4698;SDS011;33708;49.466;11.176;2023-05-07T00:17:36;14.90;;;3.80;;
4698;SDS011;33708;49.466;11.176;2023-05-07T00:20:03;15.20;;;3.17;;
4698;SDS011;33708;49.466;11.176;2023-05-07T00:22:30;12.50;;;3.33;;
4698;SDS011;33708;49.466;11.176;2023-05-07T00:24:57;12.33;;;3.80;;
4698;SDS011;33708;49.466;11.176;2023-05-07T00:27:23;13.03;;;3.60;;
4698;SDS011;33708;49.466;11.176;2023-05-07T00:29:49;12.50;;;3.70;;
4698;SDS011;33708;49.466;11.176;2023-05-07T00:32:15;10.57;;;3.20;;
4698;SDS011;33708;49.466;11.176;2023-05-07T00:34:40;11.07;;;3.40;;
4698;SDS011;33708;49.466;11.176;2023-05-07T00:37:06;15.40;;;4.00;;
4698;SDS011;33708;49.466;11.176;2023-05-07T00:39:35;10.03;;;3.13;;
4698;SDS011;33708;49.466;11.176;2023-05-07T00:42:01;11.30;;;3.27;;
4698;SDS011;33708;49.466;11.176;2023-05-07T00:44:27;10.97;;;2.93;;
4698;SDS011;33708;49.466;11.176;2023-05-07T00:46:53;12.50;;;2.57;;
4698;SDS011;33708;49.466;11.176;2023-05-07T00:49:19;21.23;;;3.70;;
4698;SDS011;33708;49.466;11.176;2023-05-07T00:51:45;9.87;;;3.43;;
4698;SDS011;33708;49.466;11.176;2023-05-07T00:54:11;9.97;;;2.87;;
4698;SDS011;33708;49.466;11.176;2023-05-07T00:56:38;12.63;;;3.30;;
4698;SDS011;33708;49.466;11.176;2023-05-07T00:59:05;11.60;;;3.40;;
4698;SDS011;33708;49.466;11.176;2023-05-07T01:01:31;16.83;;;3.57;;
4698;SDS011;33708;49.466;11.176;2023-05-07T01:03:57;12.20;;;3.63;;
4698;SDS011;33708;49.466;11.176;2023-05-07T01:06:23;10.47;;;3.10;;
4698;SDS011;33708;49.466;11.176;2023-05-07T01:08:50;9.67;;;2.80;;
4698;SDS011;33708;49.466;11.176;2023-05-07T01:11:17;11.10;;;3.53;;
4698;SDS011;33708;49.466;11.176;2023-05-07T01:13:45;12.20;;;3.53;;
4698;SDS011;33708;49.466;11.176;2023-05-07T01:16:12;10.97;;;3.40;;
4698;SDS011;33708;49.466;11.176;2023-05-07T01:18:37;9.27;;;3.00;;
4698;SDS011;33708;49.466;11.176;2023-05-07T01:21:03;10.70;;;3.20;;
4698;SDS011;33708;49.466;11.176;2023-05-07T01:23:30;13.93;;;3.50;;
4698;SDS011;33708;49.466;11.176;2023-05-07T01:25:56;10.53;;;3.60;;
4698;SDS011;33708;49.466;11.176;2023-05-07T01:28:22;10.17;;;3.10;;
4698;SDS011;33708;49.466;11.176;2023-05-07T01:30:48;10.70;;;3.37;;
4698;SDS011;33708;49.466;11.176;2023-05-07T01:33:18;10.60;;;3.30;;
4698;SDS011;33708;49.466;11.176;2023-05-07T01:35:47;10.73;;;3.60;;
4698;SDS011;33708;49.466;11.176;2023-05-07T01:38:15;9.70;;;3.20;;
4698;SDS011;33708;49.466;11.176;2023-05-07T01:40:43;10.70;;;3.53;;
4698;SDS011;33708;49.466;11.176;2023-05-07T01:43:08;10.03;;;3.13;;
4698;SDS011;33708;49.466;11.176;2023-05-07T01:45:35;13.17;;;3.50;;
4698;SDS011;33708;49.466;11.176;2023-05-07T01:48:01;11.43;;;3.30;;
4698;SDS011;33708;49.466;11.176;2023-05-07T01:50:27;12.33;;;3.30;;
4698;SDS011;33708;49.466;11.176;2023-05-07T01:52:54;11.07;;;3.60;;
4698;SDS011;33708;49.466;11.176;2023-05-07T01:55:20;11.57;;;4.40;;
4698;SDS011;33708;49.466;11.176;2023-05-07T01:57:46;10.60;;;3.43;;
4698;SDS011;33708;49.466;11.176;2023-05-07T02:00:12;13.73;;;4.03;;
4698;SDS011;33708;49.466;11.176;2023-05-07T02:02:38;10.67;;;3.90;;
4698;SDS011;33708;49.466;11.176;2023-05-07T02:05:03;10.30;;;3.97;;
4698;SDS011;33708;49.466;11.176;2023-05-07T02:07:30;13.53;;;4.07;;
4698;SDS011;33708;49.466;11.176;2023-05-07T02:09:55;11.00;;;4.20;;
4698;SDS011;33708;49.466;11.176;2023-05-07T02:12:21;10.77;;;3.60;;
4698;SDS011;33708;49.466;11.176;2023-05-07T02:14:47;10.17;;;3.83;;
4698;SDS011;33708;49.466;11.176;2023-05-07T02:17:13;11.53;;;4.07;;
4698;SDS011;33708;49.466;11.176;2023-05-07T02:19:39;14.87;;;4.33;;
4698;SDS011;33708;49.466;11.176;2023-05-07T02:22:04;11.60;;;4.23;;
4698;SDS011;33708;49.466;11.176;2023-05-07T02:24:30;13.60;;;4.37;;
4698;SDS011;33708;49.466;11.176;2023-05-07T02:26:55;12.83;;;4.57;;
4698;SDS011;33708;49.466;11.176;2023-05-07T02:29:21;10.90;;;4.00;;
4698;SDS011;33708;49.466;11.176;2023-05-07T02:31:46;11.97;;;4.63;;
4698;SDS011;33708;49.466;11.176;2023-05-07T02:34:15;11.00;;;4.80;;
4698;SDS011;33708;49.466;11.176;2023-05-07T02:36:41;11.47;;;5.23;;
4698;SDS011;33708;49.466;11.176;2023-05-07T02:39:07;11.77;;;5.27;;
4698;SDS011;33708;49.466;11.176;2023-05-07T02:41:33;12.60;;;4.80;;
4698;SDS011;33708;49.466;11.176;2023-05-07T02:43:59;14.67;;;5.53;;
4698;SDS011;33708;49.466;11.176;2023-05-07T02:46:24;12.70;;;5.47;;
4698;SDS011;33708;49.466;11.176;2023-05-07T02:48:50;11.83;;;5.27;;
4698;SDS011;33708;49.466;11.176;2023-05-07T02:51:17;12.50;;;5.37;;
4698;SDS011;33708;49.466;11.176;2023-05-07T02:53:44;11.90;;;5.43;;
4698;SDS011;33708;49.466;11.176;2023-05-07T02:56:10;14.70;;;6.27;;
4698;SDS011;33708;49.466;11.176;2023-05-07T02:58:36;13.80;;;5.93;;
4698;SDS011;33708;49.466;11.176;2023-05-07T03:01:04;11.93;;;5.87;;
4698;SDS011;33708;49.466;11.176;2023-05-07T03:03:30;16.33;;;6.30;;
4698;SDS011;33708;49.466;11.176;2023-05-07T03:05:56;12.60;;;5.60;;
4698;SDS011;33708;49.466;11.176;2023-05-07T03:08:21;17.13;;;6.53;;
4698;SDS011;33708;49.466;11.176;2023-05-07T03:10:47;15.57;;;6.77;;
4698;SDS011;33708;49.466;11.176;2023-05-07T03:13:13;13.83;;;6.17;;
4698;SDS011;33708;49.466;11.176;2023-05-07T03:15:39;14.87;;;6.10;;
4698;SDS011;33708;49.466;11.176;2023-05-07T03:18:04;11.67;;;5.80;;
4698;SDS011;33708;49.466;11.176;2023-05-07T03:20:30;14.60;;;6.60;;
4698;SDS011;33708;49.466;11.176;2023-05-07T03:22:56;14.57;;;6.33;;
4698;SDS011;33708;49.466;11.176;2023-05-07T03:25:22;13.57;;;6.43;;
4698;SDS011;33708;49.466;11.176;2023-05-07T03:27:47;17.00;;;6.10;;
4698;SDS011;33708;49.466;11.176;2023-05-07T03:30:13;15.67;;;6.90;;
4698;SDS011;33708;49.466;11.176;2023-05-07T03:32:38;21.60;;;6.80;;
4698;SDS011;33708;49.466;11.176;2023-05-07T03:35:04;17.53;;;6.83;;
4698;SDS011;33708;49.466;11.176;2023-05-07T03:37:30;18.23;;;6.73;;
4698;SDS011;33708;49.466;11.176;2023-05-07T03:39:56;14.73;;;7.33;;
4698;SDS011;33708;49.466;11.176;2023-05-07T03:42:21;15.50;;;7.00;;
4698;SDS011;33708;49.466;11.176;2023-05-07T03:44:47;16.20;;;6.40;;
4698;SDS011;33708;49.466;11.176;2023-05-07T03:47:13;13.17;;;6.20;;
4698;SDS011;33708;49.466;11.176;2023-05-07T03:49:38;15.53;;;6.13;;
4698;SDS011;33708;49.466;11.176;2023-05-07T03:52:05;15.77;;;7.03;;
4698;SDS011;33708;49.466;11.176;2023-05-07T03:54:30;12.10;;;5.67;;
4698;SDS011;33708;49.466;11.176;2023-05-07T03:56:56;14.83;;;5.47;;
4698;SDS011;33708;49.466;11.176;2023-05-07T03:59:22;13.80;;;6.10;;
4698;SDS011;33708;49.466;11.176;2023-05-07T04:01:47;15.40;;;5.40;;
4698;SDS011;33708;49.466;11.176;2023-05-07T04:04:16;11.87;;;5.03;;
4698;SDS011;33708;49.466;11.176;2023-05-07T04:06:42;12.77;;;6.33;;
4698;SDS011;33708;49.466;11.176;2023-05-07T04:09:07;12.20;;;5.37;;
4698;SDS011;33708;49.466;11.176;2023-05-07T04:11:33;13.07;;;4.67;;
4698;SDS011;33708;49.466;11.176;2023-05-07T04:14:00;13.10;;;5.10;;
4698;SDS011;33708;49.466;11.176;2023-05-07T04:16:26;11.67;;;5.00;;
4698;SDS011;33708;49.466;11.176;2023-05-07T04:18:51;12.60;;;5.47;;
4698;SDS011;33708;49.466;11.176;2023-05-07T04:21:17;15.53;;;4.10;;
4698;SDS011;33708;49.466;11.176;2023-05-07T04:23:46;13.30;;;5.00;;
4698;SDS011;33708;49.466;11.176;2023-05-07T04:26:12;11.53;;;5.17;;
4698;SDS011;33708;49.466;11.176;2023-05-07T04:28:38;12.73;;;4.57;;
4698;SDS011;33708;49.466;11.176;2023-05-07T04:31:04;11.93;;;4.63;;
4698;SDS011;33708;49.466;11.176;2023-05-07T04:33:30;14.80;;;4.90;;
4698;SDS011;33708;49.466;11.176;2023-05-07T04:35:56;11.83;;;5.43;;
4698;SDS011;33708;49.466;11.176;2023-05-07T04:38:22;14.90;;;6.73;;
4698;SDS011;33708;49.466;11.176;2023-05-07T04:40:48;16.00;;;5.80;;
4698;SDS011;33708;49.466;11.176;2023-05-07T04:43:14;12.67;;;5.67;;
4698;SDS011;33708;49.466;11.176;2023-05-07T04:45:41;12.57;;;6.00;;
4698;SDS011;33708;49.466;11.176;2023-05-07T04:48:07;11.67;;;5.83;;
4698;SDS011;33708;49.466;11.176;2023-05-07T04:50:33;15.37;;;7.03;;
4698;SDS011;33708;49.466;11.176;2023-05-07T04:52:59;13.27;;;6.37;;
4698;SDS011;33708;49.466;11.176;2023-05-07T04:55:25;15.53;;;6.70;;
4698;SDS011;33708;49.466;11.176;2023-05-07T04:57:51;14.47;;;7.10;;
4698;SDS011;33708;49.466;11.176;2023-05-07T05:00:17;16.37;;;7.60;;
4698;SDS011;33708;49.466;11.176;2023-05-07T05:02:44;15.40;;;7.83;;
4698;SDS011;33708;49.466;11.176;2023-05-07T05:05:10;16.10;;;7.67;;
4698;SDS011;33708;49.466;11.176;2023-05-07T05:07:36;17.23;;;8.40;;
4698;SDS011;33708;49.466;11.176;2023-05-07T05:10:02;16.20;;;8.13;;
4698;SDS011;33708;49.466;11.176;2023-05-07T05:12:30;17.03;;;7.77;;
4698;SDS011;33708;49.466;11.176;2023-05-07T05:14:55;19.93;;;9.40;;
4698;SDS011;33708;49.466;11.176;2023-05-07T05:17:21;15.33;;;8.47;;
4698;SDS011;33708;49.466;11.176;2023-05-07T05:19:47;15.67;;;8.43;;
4698;SDS011;33708;49.466;11.176;2023-05-07T05:22:12;19.30;;;8.67;;
4698;SDS011;33708;49.466;11.176;2023-05-07T05:24:38;16.57;;;8.50;;
4698;SDS011;33708;49.466;11.176;2023-05-07T05:27:03;18.77;;;8.90;;
4698;SDS011;33708;49.466;11.176;2023-05-07T05:29:29;24.03;;;8.93;;
4698;SDS011;33708;49.466;11.176;2023-05-07T05:31:56;15.60;;;8.30;;
4698;SDS011;33708;49.466;11.176;2023-05-07T05:34:22;16.40;;;8.83;;
4698;SDS011;33708;49.466;11.176;2023-05-07T05:36:47;19.80;;;8.73;;
4698;SDS011;33708;49.466;11.176;2023-05-07T05:39:13;18.10;;;7.97;;
4698;SDS011;33708;49.466;11.176;2023-05-07T05:41:39;15.03;;;7.80;;
4698;SDS011;33708;49.466;11.176;2023-05-07T05:44:05;17.57;;;7.60;;
4698;SDS011;33708;49.466;11.176;2023-05-07T05:46:31;18.70;;;7.50;;
4698;SDS011;33708;49.466;11.176;2023-05-07T05:48:57;19.07;;;9.40;;
4698;SDS011;33708;49.466;11.176;2023-05-07T05:51:22;15.93;;;7.60;;
4698;SDS011;33708;49.466;11.176;2023-05-07T05:53:48;17.50;;;8.30;;
4698;SDS011;33708;49.466;11.176;2023-05-07T05:56:13;22.90;;;10.23;;
4698;SDS011;33708;49.466;11.176;2023-05-07T05:58:40;22.17;;;9.30;;
4698;SDS011;33708;49.466;11.176;2023-05-07T06:01:06;16.37;;;9.07;;
4698;SDS011;33708;49.466;11.176;2023-05-07T06:03:31;18.37;;;9.90;;
4698;SDS011;33708;49.466;11.176;2023-05-07T06:05:57;18.27;;;9.30;;
4698;SDS011;33708;49.466;11.176;2023-05-07T06:08:23;17.67;;;8.90;;
4698;SDS011;33708;49.466;11.176;2023-05-07T06:10:49;16.03;;;7.83;;
4698;SDS011;33708;49.466;11.176;2023-05-07T06:13:14;15.53;;;8.70;;
4698;SDS011;33708;49.466;11.176;2023-05-07T06:15:40;25.60;;;8.30;;
4698;SDS011;33708;49.466;11.176;2023-05-07T06:18:06;16.40;;;8.97;;
4698;SDS011;33708;49.466;11.176;2023-05-07T06:20:31;17.40;;;8.37;;
4698;SDS011;33708;49.466;11.176;2023-05-07T06:22:57;15.00;;;8.53;;
4698;SDS011;33708;49.466;11.176;2023-05-07T06:25:22;16.63;;;8.23;;
4698;SDS011;33708;49.466;11.176;2023-05-07T06:27:48;15.63;;;8.47;;
4698;SDS011;33708;49.466;11.176;2023-05-07T06:30:13;20.50;;;9.00;;
4698;SDS011;33708;49.466;11.176;2023-05-07T06:32:40;15.37;;;8.20;;
4698;SDS011;33708;49.466;11.176;2023-05-07T06:35:06;15.57;;;8.70;;
4698;SDS011;33708;49.466;11.176;2023-05-07T06:37:32;20.10;;;8.33;;
4698;SDS011;33708;49.466;11.176;2023-05-07T06:39:57;17.23;;;8.77;;
4698;SDS011;33708;49.466;11.176;2023-05-07T06:42:23;18.60;;;9.33;;
4698;SDS011;33708;49.466;11.176;2023-05-07T06:44:48;17.07;;;8.40;;
4698;SDS011;33708;49.466;11.176;2023-05-07T06:47:14;18.47;;;8.40;;
4698;SDS011;33708;49.466;11.176;2023-05-07T06:49:40;16.63;;;8.20;;
4698;SDS011;33708;49.466;11.176;2023-05-07T06:52:05;14.77;;;7.83;;
4698;SDS011;33708;49.466;11.176;2023-05-07T06:54:31;17.53;;;7.40;;
4698;SDS011;33708;49.466;11.176;2023-05-07T06:56:56;16.70;;;8.30;;
4698;SDS011;33708;49.466;11.176;2023-05-07T06:59:23;16.70;;;7.63;;
4698;SDS011;33708;49.466;11.176;2023-05-07T07:01:48;16.27;;;9.00;;
4698;SDS011;33708;49.466;11.176;2023-05-07T07:04:14;16.77;;;7.90;;
4698;SDS011;33708;49.466;11.176;2023-05-07T07:06:39;14.83;;;7.80;;
4698;SDS011;33708;49.466;11.176;2023-05-07T07:09:05;17.40;;;8.13;;
4698;SDS011;33708;49.466;11.176;2023-05-07T07:11:31;15.43;;;7.60;;
4698;SDS011;33708;49.466;11.176;2023-05-07T07:13:56;13.53;;;6.43;;
4698;SDS011;33708;49.466;11.176;2023-05-07T07:16:22;16.67;;;6.50;;
4698;SDS011;33708;49.466;11.176;2023-05-07T07:18:48;13.53;;;6.97;;
4698;SDS011;33708;49.466;11.176;2023-05-07T07:21:13;15.27;;;7.00;;
4698;SDS011;33708;49.466;11.176;2023-05-07T07:23:39;15.97;;;6.57;;
4698;SDS011;33708;49.466;11.176;2023-05-07T07:26:05;15.07;;;6.83;;
4698;SDS011;33708;49.466;11.176;2023-05-07T07:28:31;15.63;;;7.43;;
4698;SDS011;33708;49.466;11.176;2023-05-07T07:30:57;15.73;;;6.77;;
4698;SDS011;33708;49.466;11.176;2023-05-07T07:33:23;14.40;;;6.60;;
4698;SDS011;33708;49.466;11.176;2023-05-07T07:35:48;15.83;;;6.40;;
4698;SDS011;33708;49.466;11.176;2023-05-07T07:38:14;14.23;;;6.60;;
4698;SDS011;33708;49.466;11.176;2023-05-07T07:40:39;16.60;;;5.87;;
4698;SDS011;33708;49.466;11.176;2023-05-07T07:43:05;15.10;;;6.57;;
4698;SDS011;33708;49.466;11.176;2023-05-07T07:45:31;13.83;;;6.03;;
4698;SDS011;33708;49.466;11.176;2023-05-07T07:47:56;15.40;;;7.00;;
4698;SDS011;33708;49.466;11.176;2023-05-07T07:50:22;13.77;;;6.27;;
4698;SDS011;33708;49.466;11.176;2023-05-07T07:52:48;14.33;;;6.70;;
4698;SDS011;33708;49.466;11.176;2023-05-07T07:55:13;16.57;;;7.50;;
4698;SDS011;33708;49.466;11.176;2023-05-07T07:57:42;14.77;;;6.93;;
4698;SDS011;33708;49.466;11.176;2023-05-07T08:00:08;14.47;;;6.90;;
4698;SDS011;33708;49.466;11.176;2023-05-07T08:02:34;14.73;;;6.17;;
4698;SDS011;33708;49.466;11.176;2023-05-07T08:05:00;14.70;;;6.80;;
4698;SDS011;33708;49.466;11.176;2023-05-07T08:07:25;15.13;;;7.10;;
4698;SDS011;33708;49.466;11.176;2023-05-07T08:09:51;15.70;;;6.43;;
4698;SDS011;33708;49.466;11.176;2023-05-07T08:12:17;13.47;;;6.87;;
4698;SDS011;33708;49.466;11.176;2023-05-07T08:14:43;14.57;;;6.80;;
4698;SDS011;33708;49.466;11.176;2023-05-07T08:17:08;13.10;;;7.03;;
4698;SDS011;33708;49.466;11.176;2023-05-07T08:19:35;12.87;;;6.23;;
4698;SDS011;33708;49.466;11.176;2023-05-07T08:22:01;13.53;;;6.67;;
4698;SDS011;33708;49.466;11.176;2023-05-07T08:24:27;13.57;;;6.20;;
4698;SDS011;33708;49.466;11.176;2023-05-07T08:26:53;12.93;;;6.30;;
4698;SDS011;33708;49.466;11.176;2023-05-07T08:29:19;16.83;;;7.43;;
4698;SDS011;33708;49.466;11.176;2023-05-07T08:31:44;18.03;;;6.80;;
4698;SDS011;33708;49.466;11.176;2023-05-07T08:34:10;14.60;;;6.70;;
4698;SDS011;33708;49.466;11.176;2023-05-07T08:36:36;13.93;;;5.87;;
4698;SDS011;33708;49.466;11.176;2023-05-07T08:39:01;18.77;;;7.03;;
4698;SDS011;33708;49.466;11.176;2023-05-07T08:41:27;14.20;;;6.50;;
4698;SDS011;33708;49.466;11.176;2023-05-07T08:43:53;14.57;;;6.50;;
4698;SDS011;33708;49.466;11.176;2023-05-07T08:46:23;14.10;;;6.20;;
4698;SDS011;33708;49.466;11.176;2023-05-07T08:48:50;13.50;;;6.20;;
4698;SDS011;33708;49.466;11.176;2023-05-07T08:51:20;12.20;;;5.87;;
4698;SDS011;33708;49.466;11.176;2023-05-07T08:53:47;16.10;;;5.80;;
4698;SDS011;33708;49.466;11.176;2023-05-07T08:56:14;15.40;;;6.93;;
4698;SDS011;33708;49.466;11.176;2023-05-07T08:58:41;14.50;;;6.57;;
4698;SDS011;33708;49.466;11.176;2023-05-07T09:01:08;15.33;;;6.37;;
4698;SDS011;33708;49.466;11.176;2023-05-07T09:03:37;13.77;;;6.20;;
4698;SDS011;33708;49.466;11.176;2023-05-07T09:06:04;12.90;;;5.73;;
4698;SDS011;33708;49.466;11.176;2023-05-07T09:08:30;15.20;;;6.10;;
4698;SDS011;33708;49.466;11.176;2023-05-07T09:10:57;14.63;;;6.50;;
4698;SDS011;33708;49.466;11.176;2023-05-07T09:13:23;14.63;;;6.13;;
4698;SDS011;33708;49.466;11.176;2023-05-07T09:15:49;15.80;;;6.40;;
4698;SDS011;33708;49.466;11.176;2023-05-07T09:18:15;21.97;;;6.60;;
4698;SDS011;33708;49.466;11.176;2023-05-07T09:20:40;18.97;;;6.10;;
4698;SDS011;33708;49.466;11.176;2023-05-07T09:23:06;16.83;;;6.23;;
4698;SDS011;33708;49.466;11.176;2023-05-07T09:25:34;11.60;;;5.63;;
4698;SDS011;33708;49.466;11.176;2023-05-07T09:28:01;15.27;;;7.10;;
4698;SDS011;33708;49.466;11.176;2023-05-07T09:30:28;13.47;;;6.03;;
4698;SDS011;33708;49.466;11.176;2023-05-07T09:32:55;13.60;;;6.40;;
4698;SDS011;33708;49.466;11.176;2023-05-07T09:35:21;13.57;;;5.83;;
4698;SDS011;33708;49.466;11.176;2023-05-07T09:37:49;14.80;;;5.93;;
4698;SDS011;33708;49.466;11.176;2023-05-07T09:40:25;11.53;;;5.33;;
4698;SDS011;33708;49.466;11.176;2023-05-07T09:42:52;15.73;;;5.80;;
4698;SDS011;33708;49.466;11.176;2023-05-07T09:45:25;11.73;;;5.33;;
4698;SDS011;33708;49.466;11.176;2023-05-07T09:47:53;18.77;;;5.50;;
4698;SDS011;33708;49.466;11.176;2023-05-07T09:50:27;15.13;;;5.83;;
4698;SDS011;33708;49.466;11.176;2023-05-07T09:52:55;12.60;;;6.30;;
4698;SDS011;33708;49.466;11.176;2023-05-07T09:55:22;15.83;;;5.30;;
4698;SDS011;33708;49.466;11.176;2023-05-07T09:57:52;12.80;;;6.17;;
4698;SDS011;33708;49.466;11.176;2023-05-07T10:00:18;11.20;;;5.30;;
4698;SDS011;33708;49.466;11.176;2023-05-07T10:02:46;13.03;;;5.50;;
4698;SDS011;33708;49.466;11.176;2023-05-07T10:05:14;12.70;;;5.33;;
4698;SDS011;33708;49.466;11.176;2023-05-07T10:07:41;13.63;;;5.77;;
4698;SDS011;33708;49.466;11.176;2023-05-07T10:10:07;15.20;;;5.67;;
4698;SDS011;33708;49.466;11.176;2023-05-07T10:12:33;12.77;;;5.47;;
4698;SDS011;33708;49.466;11.176;2023-05-07T10:15:06;12.93;;;5.07;;
4698;SDS011;33708;49.466;11.176;2023-05-07T10:17:35;15.47;;;5.63;;
4698;SDS011;33708;49.466;11.176;2023-05-07T10:20:01;12.63;;;4.77;;
4698;SDS011;33708;49.466;11.176;2023-05-07T10:22:27;11.90;;;5.30;;
4698;SDS011;33708;49.466;11.176;2023-05-07T10:24:55;12.27;;;5.23;;
4698;SDS011;33708;49.466;11.176;2023-05-07T10:27:23;14.80;;;5.53;;
4698;SDS011;33708;49.466;11.176;2023-05-07T10:32:40;11.90;;;5.27;;
4698;SDS011;33708;49.466;11.176;2023-05-07T10:35:14;13.63;;;5.13;;
4698;SDS011;33708;49.466;11.176;2023-05-07T10:37:44;13.00;;;4.90;;
4698;SDS011;33708;49.466;11.176;2023-05-07T10:40:11;11.90;;;5.50;;
4698;SDS011;33708;49.466;11.176;2023-05-07T10:42:37;14.40;;;5.20;;
4698;SDS011;33708;49.466;11.176;2023-05-07T10:45:15;14.20;;;5.20;;
4698;SDS011;33708;49.466;11.176;2023-05-07T10:50:44;11.70;;;4.77;;
4698;SDS011;33708;49.466;11.176;2023-05-07T10:55:42;10.67;;;4.43;;
4698;SDS011;33708;49.466;11.176;2023-05-07T10:58:24;12.80;;;5.20;;
4698;SDS011;33708;49.466;11.176;2023-05-07T11:00:55;13.87;;;4.93;;
4698;SDS011;33708;49.466;11.176;2023-05-07T11:03:25;10.80;;;4.53;;
4698;SDS011;33708;49.466;11.176;2023-05-07T11:11:17;12.10;;;4.63;;
4698;SDS011;33708;49.466;11.176;2023-05-07T11:16:22;13.20;;;3.43;;
4698;SDS011;33708;49.466;11.176;2023-05-07T11:18:50;11.77;;;4.00;;
4698;SDS011;33708;49.466;11.176;2023-05-07T11:24:02;14.03;;;3.73;;
4698;SDS011;33708;49.466;11.176;2023-05-07T11:26:30;11.87;;;4.10;;
4698;SDS011;33708;49.466;11.176;2023-05-07T11:29:10;10.47;;;3.57;;
4698;SDS011;33708;49.466;11.176;2023-05-07T11:31:40;31.53;;;4.77;;
4698;SDS011;33708;49.466;11.176;2023-05-07T11:34:06;10.30;;;3.60;;
4698;SDS011;33708;49.466;11.176;2023-05-07T11:36:32;11.07;;;4.20;;
4698;SDS011;33708;49.466;11.176;2023-05-07T11:38:58;11.70;;;3.70;;
4698;SDS011;33708;49.466;11.176;2023-05-07T11:41:33;11.53;;;4.37;;
4698;SDS011;33708;49.466;11.176;2023-05-07T11:44:02;11.23;;;3.50;;
4698;SDS011;33708;49.466;11.176;2023-05-07T11:46:27;13.73;;;4.03;;
4698;SDS011;33708;49.466;11.176;2023-05-07T11:48:54;9.83;;;3.30;;
4698;SDS011;33708;49.466;11.176;2023-05-07T11:51:20;9.90;;;3.40;;
4698;SDS011;33708;49.466;11.176;2023-05-07T11:53:48;14.60;;;4.60;;
4698;SDS011;33708;49.466;11.176;2023-05-07T11:56:14;9.80;;;3.60;;
4698;SDS011;33708;49.466;11.176;2023-05-07T11:58:41;10.20;;;3.63;;
4698;SDS011;33708;49.466;11.176;2023-05-07T12:01:08;12.63;;;3.50;;
4698;SDS011;33708;49.466;11.176;2023-05-07T12:03:36;11.00;;;3.50;;
4698;SDS011;33708;49.466;11.176;2023-05-07T12:06:07;12.60;;;3.03;;
4698;SDS011;33708;49.466;11.176;2023-05-07T12:08:35;12.30;;;3.17;;
4698;SDS011;33708;49.466;11.176;2023-05-07T12:11:02;10.10;;;3.90;;
4698;SDS011;33708;49.466;11.176;2023-05-07T12:13:31;11.17;;;4.20;;
4698;SDS011;33708;49.466;11.176;2023-05-07T12:15:57;13.00;;;4.03;;
4698;SDS011;33708;49.466;11.176;2023-05-07T12:18:23;10.80;;;4.00;;
4698;SDS011;33708;49.466;11.176;2023-05-07T12:20:49;11.03;;;3.77;;
4698;SDS011;33708;49.466;11.176;2023-05-07T12:23:15;12.43;;;3.77;;
4698;SDS011;33708;49.466;11.176;2023-05-07T12:25:42;12.53;;;4.67;;
4698;SDS011;33708;49.466;11.176;2023-05-07T12:28:13;11.03;;;3.70;;
4698;SDS011;33708;49.466;11.176;2023-05-07T12:30:40;13.03;;;4.73;;
4698;SDS011;33708;49.466;11.176;2023-05-07T12:33:08;13.50;;;4.53;;
4698;SDS011;33708;49.466;11.176;2023-05-07T12:35:37;15.33;;;4.10;;
4698;SDS011;33708;49.466;11.176;2023-05-07T12:38:08;11.10;;;3.80;;
4698;SDS011;33708;49.466;11.176;2023-05-07T12:40:42;11.73;;;3.40;;
4698;SDS011;33708;49.466;11.176;2023-05-07T12:43:08;11.30;;;3.67;;
4698;SDS011;33708;49.466;11.176;2023-05-07T12:45:50;10.00;;;3.53;;
4698;SDS011;33708;49.466;11.176;2023-05-07T12:48:17;14.10;;;4.10;;
4698;SDS011;33708;49.466;11.176;2023-05-07T12:50:44;12.87;;;4.27;;
4698;SDS011;33708;49.466;11.176;2023-05-07T12:53:11;12.40;;;4.20;;
4698;SDS011;33708;49.466;11.176;2023-05-07T12:55:41;10.17;;;4.00;;
4698;SDS011;33708;49.466;11.176;2023-05-07T12:58:08;10.50;;;3.90;;
4698;SDS011;33708;49.466;11.176;2023-05-07T13:00:43;12.53;;;3.50;;
4698;SDS011;33708;49.466;11.176;2023-05-07T13:03:10;12.90;;;4.20;;
4698;SDS011;33708;49.466;11.176;2023-05-07T13:05:36;13.13;;;4.17;;
4698;SDS011;33708;49.466;11.176;2023-05-07T13:08:01;12.90;;;4.10;;
4698;SDS011;33708;49.466;11.176;2023-05-07T13:10:27;10.90;;;3.70;;
4698;SDS011;33708;49.466;11.176;2023-05-07T13:12:53;11.50;;;3.97;;
4698;SDS011;33708;49.466;11.176;2023-05-07T13:15:19;10.67;;;3.73;;
4698;SDS011;33708;49.466;11.176;2023-05-07T13:17:45;9.90;;;3.40;;
4698;SDS011;33708;49.466;11.176;2023-05-07T13:20:11;12.17;;;3.97;;
4698;SDS011;33708;49.466;11.176;2023-05-07T13:22:37;10.47;;;3.50;;
4698;SDS011;33708;49.466;11.176;2023-05-07T13:25:04;10.97;;;3.60;;
4698;SDS011;33708;49.466;11.176;2023-05-07T13:27:30;10.30;;;3.53;;
4698;SDS011;33708;49.466;11.176;2023-05-07T13:29:56;10.27;;;3.57;;
4698;SDS011;33708;49.466;11.176;2023-05-07T13:32:22;11.07;;;3.93;;
4698;SDS011;33708;49.466;11.176;2023-05-07T13:34:47;10.80;;;3.40;;
4698;SDS011;33708;49.466;11.176;2023-05-07T13:37:13;12.63;;;3.90;;
4698;SDS011;33708;49.466;11.176;2023-05-07T13:39:38;9.70;;;3.80;;
4698;SDS011;33708;49.466;11.176;2023-05-07T13:42:04;11.10;;;4.10;;
4698;SDS011;33708;49.466;11.176;2023-05-07T13:44:30;11.83;;;4.20;;
4698;SDS011;33708;49.466;11.176;2023-05-07T13:46:55;10.63;;;3.70;;
4698;SDS011;33708;49.466;11.176;2023-05-07T13:49:21;17.20;;;4.23;;
4698;SDS011;33708;49.466;11.176;2023-05-07T13:51:46;11.37;;;3.30;;
4698;SDS011;33708;49.466;11.176;2023-05-07T13:54:12;10.70;;;3.67;;
4698;SDS011;33708;49.466;11.176;2023-05-07T13:56:39;15.80;;;3.60;;
4698;SDS011;33708;49.466;11.176;2023-05-07T13:59:04;11.73;;;3.57;;
4698;SDS011;33708;49.466;11.176;2023-05-07T14:01:30;9.90;;;3.70;;
4698;SDS011;33708;49.466;11.176;2023-05-07T14:03:56;13.90;;;3.20;;
4698;SDS011;33708;49.466;11.176;2023-05-07T14:06:24;13.33;;;4.20;;
4698;SDS011;33708;49.466;11.176;2023-05-07T14:08:50;10.00;;;3.57;;
4698;SDS011;33708;49.466;11.176;2023-05-07T14:11:16;12.00;;;3.90;;
4698;SDS011;33708;49.466;11.176;2023-05-07T14:13:42;10.80;;;3.50;;
4698;SDS011;33708;49.466;11.176;2023-05-07T14:16:07;10.63;;;3.93;;
4698;SDS011;33708;49.466;11.176;2023-05-07T14:18:33;12.60;;;4.47;;
4698;SDS011;33708;49.466;11.176;2023-05-07T14:21:00;11.93;;;4.80;;
4698;SDS011;33708;49.466;11.176;2023-05-07T14:23:25;10.30;;;3.80;;
4698;SDS011;33708;49.466;11.176;2023-05-07T14:25:52;10.80;;;4.20;;
4698;SDS011;33708;49.466;11.176;2023-05-07T14:28:18;12.03;;;3.97;;
4698;SDS011;33708;49.466;11.176;2023-05-07T14:30:44;11.00;;;4.13;;
4698;SDS011;33708;49.466;11.176;2023-05-07T14:33:10;12.53;;;4.70;;
4698;SDS011;33708;49.466;11.176;2023-05-07T14:35:35;13.60;;;3.67;;
4698;SDS011;33708;49.466;11.176;2023-05-07T14:38:01;12.67;;;4.30;;
4698;SDS011;33708;49.466;11.176;2023-05-07T14:40:26;10.70;;;4.57;;
4698;SDS011;33708;49.466;11.176;2023-05-07T14:42:52;11.83;;;4.60;;
4698;SDS011;33708;49.466;11.176;2023-05-07T14:45:18;13.20;;;6.70;;
4698;SDS011;33708;49.466;11.176;2023-05-07T14:47:43;12.63;;;4.93;;
4698;SDS011;33708;49.466;11.176;2023-05-07T14:50:09;13.90;;;4.77;;